sensor_id;sensor_type;location;lat;lon;timestamp;P1;durP1;ratioP1;P2;durP2;ratioP2
49464;SDS011;35358;49.342;8.802;2022-12-18T00:01:18;51.33;;;25.63;;
49464;SDS011;35358;49.342;8.802;2022-12-18T00:03:53;42.75;;;19.58;;
49464;SDS011;35358;49.342;8.802;2022-12-18T00:06:20;35.97;;;18.15;;
49464;SDS011;35358;49.342;8.802;2022-12-18T00:08:46;38.53;;;18.33;;
49464;SDS011;35358;49.342;8.802;2022-12-18T00:11:14;37.83;;;19.65;;
49464;SDS011;35358;49.342;8.802;2022-12-18T00:13:41;47.15;;;22.40;;
49464;SDS011;35358;49.342;8.802;2022-12-18T00:16:11;54.53;;;26.13;;
49464;SDS011;35358;49.342;8.802;2022-12-18T00:18:38;55.17;;;27.30;;
49464;SDS011;35358;49.342;8.802;2022-12-18T00:21:05;56.78;;;26.85;;
49464;SDS011;35358;49.342;8.802;2022-12-18T00:23:34;50.08;;;26.10;;
49464;SDS011;35358;49.342;8.802;2022-12-18T00:26:05;51.70;;;26.08;;
49464;SDS011;35358;49.342;8.802;2022-12-18T00:28:32;56.20;;;26.20;;
49464;SDS011;35358;49.342;8.802;2022-12-18T00:33:27;39.95;;;21.38;;
49464;SDS011;35358;49.342;8.802;2022-12-18T00:35:53;42.05;;;20.15;;
49464;SDS011;35358;49.342;8.802;2022-12-18T00:38:18;47.78;;;22.58;;
49464;SDS011;35358;49.342;8.802;2022-12-18T00:40:44;36.00;;;17.20;;
49464;SDS011;35358;49.342;8.802;2022-12-18T00:43:09;28.73;;;14.80;;
49464;SDS011;35358;49.342;8.802;2022-12-18T00:45:35;27.48;;;13.43;;
49464;SDS011;35358;49.342;8.802;2022-12-18T00:48:01;26.40;;;12.45;;
49464;SDS011;35358;49.342;8.802;2022-12-18T00:50:27;22.05;;;11.68;;
49464;SDS011;35358;49.342;8.802;2022-12-18T00:52:55;23.67;;;12.00;;
49464;SDS011;35358;49.342;8.802;2022-12-18T00:55:23;28.13;;;13.13;;
49464;SDS011;35358;49.342;8.802;2022-12-18T00:57:50;22.52;;;11.68;;
49464;SDS011;35358;49.342;8.802;2022-12-18T01:00:17;26.77;;;14.15;;
49464;SDS011;35358;49.342;8.802;2022-12-18T01:02:43;26.92;;;13.25;;
49464;SDS011;35358;49.342;8.802;2022-12-18T01:05:10;27.80;;;13.18;;
49464;SDS011;35358;49.342;8.802;2022-12-18T01:07:37;20.73;;;11.35;;
49464;SDS011;35358;49.342;8.802;2022-12-18T01:10:03;30.00;;;15.77;;
49464;SDS011;35358;49.342;8.802;2022-12-18T01:12:30;41.35;;;20.40;;
49464;SDS011;35358;49.342;8.802;2022-12-18T01:14:56;40.08;;;19.90;;
49464;SDS011;35358;49.342;8.802;2022-12-18T01:17:21;35.90;;;17.23;;
49464;SDS011;35358;49.342;8.802;2022-12-18T01:19:47;32.78;;;16.05;;
49464;SDS011;35358;49.342;8.802;2022-12-18T01:22:12;34.38;;;16.52;;
49464;SDS011;35358;49.342;8.802;2022-12-18T01:24:40;34.33;;;16.67;;
49464;SDS011;35358;49.342;8.802;2022-12-18T01:27:06;29.65;;;14.52;;
49464;SDS011;35358;49.342;8.802;2022-12-18T01:29:32;28.48;;;14.65;;
49464;SDS011;35358;49.342;8.802;2022-12-18T01:31:57;28.20;;;15.07;;
49464;SDS011;35358;49.342;8.802;2022-12-18T01:34:26;31.25;;;14.65;;
49464;SDS011;35358;49.342;8.802;2022-12-18T01:36:54;29.13;;;13.30;;
49464;SDS011;35358;49.342;8.802;2022-12-18T01:39:19;25.75;;;14.50;;
49464;SDS011;35358;49.342;8.802;2022-12-18T01:41:47;25.35;;;13.18;;
49464;SDS011;35358;49.342;8.802;2022-12-18T01:50:16;26.83;;;13.18;;
49464;SDS011;35358;49.342;8.802;2022-12-18T01:52:54;22.45;;;12.77;;
49464;SDS011;35358;49.342;8.802;2022-12-18T01:55:48;28.15;;;13.23;;
49464;SDS011;35358;49.342;8.802;2022-12-18T01:58:16;26.98;;;13.27;;
49464;SDS011;35358;49.342;8.802;2022-12-18T02:00:45;23.13;;;11.27;;
49464;SDS011;35358;49.342;8.802;2022-12-18T02:03:11;25.13;;;11.90;;
49464;SDS011;35358;49.342;8.802;2022-12-18T02:10:54;23.48;;;11.75;;
49464;SDS011;35358;49.342;8.802;2022-12-18T02:19:02;38.35;;;18.80;;
49464;SDS011;35358;49.342;8.802;2022-12-18T02:21:49;32.08;;;16.85;;
49464;SDS011;35358;49.342;8.802;2022-12-18T02:27:07;34.78;;;16.33;;
49464;SDS011;35358;49.342;8.802;2022-12-18T02:29:40;27.60;;;14.73;;
49464;SDS011;35358;49.342;8.802;2022-12-18T02:32:27;28.83;;;14.32;;
49464;SDS011;35358;49.342;8.802;2022-12-18T02:34:56;37.08;;;16.70;;
49464;SDS011;35358;49.342;8.802;2022-12-18T02:37:24;28.60;;;15.95;;
49464;SDS011;35358;49.342;8.802;2022-12-18T02:39:52;31.88;;;16.58;;
49464;SDS011;35358;49.342;8.802;2022-12-18T02:42:21;33.50;;;15.80;;
49464;SDS011;35358;49.342;8.802;2022-12-18T02:44:48;36.88;;;16.42;;
49464;SDS011;35358;49.342;8.802;2022-12-18T02:47:16;31.70;;;16.27;;
49464;SDS011;35358;49.342;8.802;2022-12-18T02:52:18;26.02;;;12.65;;
49464;SDS011;35358;49.342;8.802;2022-12-18T03:00:24;31.45;;;14.60;;
49464;SDS011;35358;49.342;8.802;2022-12-18T03:05:31;26.75;;;13.07;;
49464;SDS011;35358;49.342;8.802;2022-12-18T03:08:03;25.92;;;12.55;;
49464;SDS011;35358;49.342;8.802;2022-12-18T03:10:38;27.55;;;12.60;;
49464;SDS011;35358;49.342;8.802;2022-12-18T03:13:13;31.13;;;12.73;;
49464;SDS011;35358;49.342;8.802;2022-12-18T03:15:45;27.83;;;13.63;;
49464;SDS011;35358;49.342;8.802;2022-12-18T03:18:18;32.33;;;15.40;;
49464;SDS011;35358;49.342;8.802;2022-12-18T03:20:48;30.38;;;14.63;;
49464;SDS011;35358;49.342;8.802;2022-12-18T03:23:17;28.55;;;15.02;;
49464;SDS011;35358;49.342;8.802;2022-12-18T03:25:47;32.60;;;15.30;;
49464;SDS011;35358;49.342;8.802;2022-12-18T03:28:19;26.70;;;13.45;;
49464;SDS011;35358;49.342;8.802;2022-12-18T03:30:49;27.92;;;14.15;;
49464;SDS011;35358;49.342;8.802;2022-12-18T03:33:31;26.83;;;12.88;;
49464;SDS011;35358;49.342;8.802;2022-12-18T03:36:03;28.83;;;13.55;;
49464;SDS011;35358;49.342;8.802;2022-12-18T03:38:29;23.23;;;12.05;;
49464;SDS011;35358;49.342;8.802;2022-12-18T03:49:32;24.48;;;12.70;;
49464;SDS011;35358;49.342;8.802;2022-12-18T03:52:11;25.23;;;11.35;;
49464;SDS011;35358;49.342;8.802;2022-12-18T03:54:43;24.38;;;11.80;;
49464;SDS011;35358;49.342;8.802;2022-12-18T03:57:11;25.17;;;12.73;;
49464;SDS011;35358;49.342;8.802;2022-12-18T03:59:41;23.42;;;11.45;;
49464;SDS011;35358;49.342;8.802;2022-12-18T04:02:10;25.70;;;12.25;;
49464;SDS011;35358;49.342;8.802;2022-12-18T04:04:37;26.67;;;13.00;;
49464;SDS011;35358;49.342;8.802;2022-12-18T04:07:05;23.70;;;12.30;;
49464;SDS011;35358;49.342;8.802;2022-12-18T04:09:32;25.55;;;12.52;;
49464;SDS011;35358;49.342;8.802;2022-12-18T04:12:03;25.27;;;11.80;;
49464;SDS011;35358;49.342;8.802;2022-12-18T04:14:31;25.27;;;11.55;;
49464;SDS011;35358;49.342;8.802;2022-12-18T04:17:00;22.40;;;11.63;;
49464;SDS011;35358;49.342;8.802;2022-12-18T04:19:27;26.27;;;12.38;;
49464;SDS011;35358;49.342;8.802;2022-12-18T04:21:53;22.60;;;12.35;;
49464;SDS011;35358;49.342;8.802;2022-12-18T04:24:18;24.02;;;11.20;;
49464;SDS011;35358;49.342;8.802;2022-12-18T04:26:47;25.38;;;12.18;;
49464;SDS011;35358;49.342;8.802;2022-12-18T04:29:12;25.02;;;13.13;;
49464;SDS011;35358;49.342;8.802;2022-12-18T04:31:38;26.30;;;12.45;;
49464;SDS011;35358;49.342;8.802;2022-12-18T04:34:03;24.15;;;11.23;;
49464;SDS011;35358;49.342;8.802;2022-12-18T04:36:29;21.45;;;11.25;;
49464;SDS011;35358;49.342;8.802;2022-12-18T04:38:57;26.98;;;13.85;;
49464;SDS011;35358;49.342;8.802;2022-12-18T04:41:27;24.98;;;13.27;;
49464;SDS011;35358;49.342;8.802;2022-12-18T04:43:53;26.92;;;13.23;;
49464;SDS011;35358;49.342;8.802;2022-12-18T04:46:19;28.42;;;15.25;;
49464;SDS011;35358;49.342;8.802;2022-12-18T04:48:47;29.77;;;13.88;;
49464;SDS011;35358;49.342;8.802;2022-12-18T04:51:12;34.33;;;15.75;;
49464;SDS011;35358;49.342;8.802;2022-12-18T04:53:38;32.47;;;14.63;;
49464;SDS011;35358;49.342;8.802;2022-12-18T04:56:05;32.35;;;15.43;;
49464;SDS011;35358;49.342;8.802;2022-12-18T04:58:32;29.25;;;13.75;;
49464;SDS011;35358;49.342;8.802;2022-12-18T05:00:57;30.42;;;15.70;;
49464;SDS011;35358;49.342;8.802;2022-12-18T05:03:23;30.52;;;14.75;;
49464;SDS011;35358;49.342;8.802;2022-12-18T05:05:51;26.77;;;13.32;;
49464;SDS011;35358;49.342;8.802;2022-12-18T05:08:17;28.10;;;14.18;;
49464;SDS011;35358;49.342;8.802;2022-12-18T05:10:43;31.25;;;14.48;;
49464;SDS011;35358;49.342;8.802;2022-12-18T05:13:09;33.42;;;15.20;;
49464;SDS011;35358;49.342;8.802;2022-12-18T05:15:34;30.08;;;15.50;;
49464;SDS011;35358;49.342;8.802;2022-12-18T05:18:00;37.85;;;16.35;;
49464;SDS011;35358;49.342;8.802;2022-12-18T05:20:26;34.80;;;16.85;;
49464;SDS011;35358;49.342;8.802;2022-12-18T05:22:53;46.40;;;22.13;;
49464;SDS011;35358;49.342;8.802;2022-12-18T05:25:21;62.97;;;29.15;;
49464;SDS011;35358;49.342;8.802;2022-12-18T05:27:48;43.42;;;21.42;;
49464;SDS011;35358;49.342;8.802;2022-12-18T05:30:14;39.50;;;19.33;;
49464;SDS011;35358;49.342;8.802;2022-12-18T05:32:44;33.83;;;16.73;;
49464;SDS011;35358;49.342;8.802;2022-12-18T05:35:10;40.33;;;20.50;;
49464;SDS011;35358;49.342;8.802;2022-12-18T05:37:36;43.22;;;20.92;;
49464;SDS011;35358;49.342;8.802;2022-12-18T05:40:04;34.10;;;19.13;;
49464;SDS011;35358;49.342;8.802;2022-12-18T05:42:30;42.97;;;20.52;;
49464;SDS011;35358;49.342;8.802;2022-12-18T05:44:56;45.35;;;22.33;;
49464;SDS011;35358;49.342;8.802;2022-12-18T05:47:21;45.10;;;22.42;;
49464;SDS011;35358;49.342;8.802;2022-12-18T05:49:47;52.22;;;24.10;;
49464;SDS011;35358;49.342;8.802;2022-12-18T05:52:12;49.13;;;23.38;;
49464;SDS011;35358;49.342;8.802;2022-12-18T05:54:40;50.97;;;23.52;;
49464;SDS011;35358;49.342;8.802;2022-12-18T05:57:08;47.40;;;21.40;;
49464;SDS011;35358;49.342;8.802;2022-12-18T05:59:39;64.32;;;30.95;;
49464;SDS011;35358;49.342;8.802;2022-12-18T06:02:04;82.43;;;35.55;;
49464;SDS011;35358;49.342;8.802;2022-12-18T06:04:30;66.93;;;32.28;;
49464;SDS011;35358;49.342;8.802;2022-12-18T06:06:58;52.97;;;25.20;;
49464;SDS011;35358;49.342;8.802;2022-12-18T06:09:24;45.88;;;23.55;;
49464;SDS011;35358;49.342;8.802;2022-12-18T06:11:52;45.70;;;23.02;;
49464;SDS011;35358;49.342;8.802;2022-12-18T06:14:17;43.40;;;22.90;;
49464;SDS011;35358;49.342;8.802;2022-12-18T06:16:43;45.25;;;23.27;;
49464;SDS011;35358;49.342;8.802;2022-12-18T06:19:14;47.20;;;23.58;;
49464;SDS011;35358;49.342;8.802;2022-12-18T06:21:41;51.97;;;23.83;;
49464;SDS011;35358;49.342;8.802;2022-12-18T06:24:06;51.05;;;23.08;;
49464;SDS011;35358;49.342;8.802;2022-12-18T06:26:32;43.10;;;22.70;;
49464;SDS011;35358;49.342;8.802;2022-12-18T06:28:58;48.42;;;23.40;;
49464;SDS011;35358;49.342;8.802;2022-12-18T06:31:28;43.70;;;22.00;;
49464;SDS011;35358;49.342;8.802;2022-12-18T06:33:55;42.50;;;22.58;;
49464;SDS011;35358;49.342;8.802;2022-12-18T06:36:21;45.40;;;23.10;;
49464;SDS011;35358;49.342;8.802;2022-12-18T06:38:47;44.70;;;23.27;;
49464;SDS011;35358;49.342;8.802;2022-12-18T06:41:19;44.60;;;20.30;;
49464;SDS011;35358;49.342;8.802;2022-12-18T06:43:47;43.13;;;21.23;;
49464;SDS011;35358;49.342;8.802;2022-12-18T06:46:15;41.72;;;19.92;;
49464;SDS011;35358;49.342;8.802;2022-12-18T06:48:46;45.55;;;21.75;;
49464;SDS011;35358;49.342;8.802;2022-12-18T06:51:15;46.20;;;22.40;;
49464;SDS011;35358;49.342;8.802;2022-12-18T06:53:50;43.30;;;21.73;;
49464;SDS011;35358;49.342;8.802;2022-12-18T06:56:16;44.95;;;21.95;;
49464;SDS011;35358;49.342;8.802;2022-12-18T06:58:41;39.33;;;18.83;;
49464;SDS011;35358;49.342;8.802;2022-12-18T07:01:10;42.55;;;21.33;;
49464;SDS011;35358;49.342;8.802;2022-12-18T07:03:39;40.05;;;20.48;;
49464;SDS011;35358;49.342;8.802;2022-12-18T07:06:06;40.42;;;20.35;;
49464;SDS011;35358;49.342;8.802;2022-12-18T07:08:37;43.55;;;21.90;;
49464;SDS011;35358;49.342;8.802;2022-12-18T07:11:03;44.10;;;22.10;;
49464;SDS011;35358;49.342;8.802;2022-12-18T07:13:30;40.72;;;20.30;;
49464;SDS011;35358;49.342;8.802;2022-12-18T07:16:02;47.33;;;20.67;;
49464;SDS011;35358;49.342;8.802;2022-12-18T07:18:31;44.67;;;21.65;;
49464;SDS011;35358;49.342;8.802;2022-12-18T07:20:56;38.22;;;20.00;;
49464;SDS011;35358;49.342;8.802;2022-12-18T07:23:22;40.45;;;20.83;;
49464;SDS011;35358;49.342;8.802;2022-12-18T07:25:47;43.35;;;21.50;;
49464;SDS011;35358;49.342;8.802;2022-12-18T07:28:13;46.50;;;21.20;;
49464;SDS011;35358;49.342;8.802;2022-12-18T07:30:39;44.67;;;21.30;;
49464;SDS011;35358;49.342;8.802;2022-12-18T07:33:05;43.08;;;20.17;;
49464;SDS011;35358;49.342;8.802;2022-12-18T07:35:33;42.17;;;21.13;;
49464;SDS011;35358;49.342;8.802;2022-12-18T07:38:01;44.63;;;20.98;;
49464;SDS011;35358;49.342;8.802;2022-12-18T07:40:29;43.95;;;20.95;;
49464;SDS011;35358;49.342;8.802;2022-12-18T07:42:55;44.75;;;22.02;;
49464;SDS011;35358;49.342;8.802;2022-12-18T07:45:20;45.97;;;22.13;;
49464;SDS011;35358;49.342;8.802;2022-12-18T07:47:48;40.25;;;20.67;;
49464;SDS011;35358;49.342;8.802;2022-12-18T07:50:14;41.20;;;19.33;;
49464;SDS011;35358;49.342;8.802;2022-12-18T07:52:44;40.42;;;20.30;;
49464;SDS011;35358;49.342;8.802;2022-12-18T07:55:09;42.88;;;20.80;;
49464;SDS011;35358;49.342;8.802;2022-12-18T07:57:37;40.22;;;18.48;;
49464;SDS011;35358;49.342;8.802;2022-12-18T08:00:05;42.47;;;21.30;;
49464;SDS011;35358;49.342;8.802;2022-12-18T08:02:31;35.17;;;16.83;;
49464;SDS011;35358;49.342;8.802;2022-12-18T08:04:57;47.05;;;21.02;;
49464;SDS011;35358;49.342;8.802;2022-12-18T08:07:23;49.13;;;21.50;;
49464;SDS011;35358;49.342;8.802;2022-12-18T08:09:49;40.83;;;20.05;;
49464;SDS011;35358;49.342;8.802;2022-12-18T08:12:14;45.53;;;21.00;;
49464;SDS011;35358;49.342;8.802;2022-12-18T08:14:40;39.88;;;19.77;;
49464;SDS011;35358;49.342;8.802;2022-12-18T08:17:06;39.92;;;20.17;;
49464;SDS011;35358;49.342;8.802;2022-12-18T08:19:34;43.70;;;20.40;;
49464;SDS011;35358;49.342;8.802;2022-12-18T08:21:59;42.90;;;20.77;;
49464;SDS011;35358;49.342;8.802;2022-12-18T08:24:25;39.53;;;20.23;;
49464;SDS011;35358;49.342;8.802;2022-12-18T08:26:50;48.00;;;20.73;;
49464;SDS011;35358;49.342;8.802;2022-12-18T08:29:18;40.30;;;18.70;;
49464;SDS011;35358;49.342;8.802;2022-12-18T08:31:46;43.67;;;19.73;;
49464;SDS011;35358;49.342;8.802;2022-12-18T08:34:12;43.97;;;20.70;;
49464;SDS011;35358;49.342;8.802;2022-12-18T08:36:40;44.47;;;20.52;;
49464;SDS011;35358;49.342;8.802;2022-12-18T08:39:05;44.05;;;19.85;;
49464;SDS011;35358;49.342;8.802;2022-12-18T08:41:33;43.38;;;22.25;;
49464;SDS011;35358;49.342;8.802;2022-12-18T08:43:59;42.65;;;19.48;;
49464;SDS011;35358;49.342;8.802;2022-12-18T08:46:45;44.50;;;21.42;;
49464;SDS011;35358;49.342;8.802;2022-12-18T08:49:11;38.08;;;18.42;;
49464;SDS011;35358;49.342;8.802;2022-12-18T08:51:37;45.70;;;21.63;;
49464;SDS011;35358;49.342;8.802;2022-12-18T08:54:05;45.65;;;20.15;;
49464;SDS011;35358;49.342;8.802;2022-12-18T08:56:31;40.85;;;19.45;;
49464;SDS011;35358;49.342;8.802;2022-12-18T08:59:00;43.40;;;23.20;;
49464;SDS011;35358;49.342;8.802;2022-12-18T09:01:26;46.00;;;22.67;;
49464;SDS011;35358;49.342;8.802;2022-12-18T09:03:54;43.67;;;19.75;;
49464;SDS011;35358;49.342;8.802;2022-12-18T09:06:20;46.50;;;20.55;;
49464;SDS011;35358;49.342;8.802;2022-12-18T09:08:47;39.47;;;18.50;;
49464;SDS011;35358;49.342;8.802;2022-12-18T09:13:45;44.40;;;18.20;;
49464;SDS011;35358;49.342;8.802;2022-12-18T09:16:13;41.72;;;19.88;;
49464;SDS011;35358;49.342;8.802;2022-12-18T09:18:39;46.65;;;20.48;;
49464;SDS011;35358;49.342;8.802;2022-12-18T09:21:09;37.90;;;20.05;;
49464;SDS011;35358;49.342;8.802;2022-12-18T09:23:41;41.88;;;19.40;;
49464;SDS011;35358;49.342;8.802;2022-12-18T09:26:10;42.10;;;19.60;;
49464;SDS011;35358;49.342;8.802;2022-12-18T09:28:35;47.60;;;22.00;;
49464;SDS011;35358;49.342;8.802;2022-12-18T09:31:05;46.78;;;21.20;;
49464;SDS011;35358;49.342;8.802;2022-12-18T09:33:35;46.58;;;21.48;;
49464;SDS011;35358;49.342;8.802;2022-12-18T09:36:02;45.03;;;20.90;;
49464;SDS011;35358;49.342;8.802;2022-12-18T09:38:33;41.58;;;20.05;;
49464;SDS011;35358;49.342;8.802;2022-12-18T09:44:17;41.58;;;19.75;;
49464;SDS011;35358;49.342;8.802;2022-12-18T09:50:21;37.53;;;18.70;;
49464;SDS011;35358;49.342;8.802;2022-12-18T09:55:22;44.38;;;21.38;;
49464;SDS011;35358;49.342;8.802;2022-12-18T09:57:56;43.30;;;18.60;;
49464;SDS011;35358;49.342;8.802;2022-12-18T10:00:29;39.83;;;19.23;;
49464;SDS011;35358;49.342;8.802;2022-12-18T10:02:59;48.17;;;19.50;;
49464;SDS011;35358;49.342;8.802;2022-12-18T10:08:15;36.28;;;18.80;;
49464;SDS011;35358;49.342;8.802;2022-12-18T10:10:57;45.28;;;20.45;;
49464;SDS011;35358;49.342;8.802;2022-12-18T10:13:40;43.30;;;18.52;;
49464;SDS011;35358;49.342;8.802;2022-12-18T10:16:27;46.63;;;20.15;;
49464;SDS011;35358;49.342;8.802;2022-12-18T10:21:43;43.80;;;19.55;;
49464;SDS011;35358;49.342;8.802;2022-12-18T10:24:26;42.70;;;19.52;;
49464;SDS011;35358;49.342;8.802;2022-12-18T10:27:18;43.10;;;19.40;;
49464;SDS011;35358;49.342;8.802;2022-12-18T10:29:49;44.95;;;21.02;;
49464;SDS011;35358;49.342;8.802;2022-12-18T10:32:35;40.47;;;18.80;;
49464;SDS011;35358;49.342;8.802;2022-12-18T10:35:03;44.05;;;20.08;;
49464;SDS011;35358;49.342;8.802;2022-12-18T10:37:29;44.60;;;19.55;;
49464;SDS011;35358;49.342;8.802;2022-12-18T10:40:06;40.70;;;18.75;;
49464;SDS011;35358;49.342;8.802;2022-12-18T10:42:40;51.38;;;21.05;;
49464;SDS011;35358;49.342;8.802;2022-12-18T10:45:11;45.50;;;20.25;;
49464;SDS011;35358;49.342;8.802;2022-12-18T10:47:44;44.78;;;20.63;;
49464;SDS011;35358;49.342;8.802;2022-12-18T10:50:34;39.13;;;19.13;;
49464;SDS011;35358;49.342;8.802;2022-12-18T10:53:04;43.17;;;19.38;;
49464;SDS011;35358;49.342;8.802;2022-12-18T10:55:31;38.13;;;20.33;;
49464;SDS011;35358;49.342;8.802;2022-12-18T11:01:10;42.30;;;19.02;;
49464;SDS011;35358;49.342;8.802;2022-12-18T11:06:12;43.22;;;20.08;;
49464;SDS011;35358;49.342;8.802;2022-12-18T11:08:43;42.10;;;18.20;;
49464;SDS011;35358;49.342;8.802;2022-12-18T11:11:24;40.83;;;19.70;;
49464;SDS011;35358;49.342;8.802;2022-12-18T11:16:36;41.17;;;19.05;;
49464;SDS011;35358;49.342;8.802;2022-12-18T11:19:12;39.83;;;19.08;;
49464;SDS011;35358;49.342;8.802;2022-12-18T11:21:41;34.22;;;15.90;;
49464;SDS011;35358;49.342;8.802;2022-12-18T11:24:31;44.67;;;19.80;;
49464;SDS011;35358;49.342;8.802;2022-12-18T11:27:03;42.40;;;19.55;;
49464;SDS011;35358;49.342;8.802;2022-12-18T11:29:34;39.30;;;18.88;;
49464;SDS011;35358;49.342;8.802;2022-12-18T11:32:43;38.57;;;19.77;;
49464;SDS011;35358;49.342;8.802;2022-12-18T11:35:17;46.80;;;21.52;;
49464;SDS011;35358;49.342;8.802;2022-12-18T11:37:49;43.35;;;21.00;;
49464;SDS011;35358;49.342;8.802;2022-12-18T11:40:33;44.42;;;20.75;;
49464;SDS011;35358;49.342;8.802;2022-12-18T11:43:15;44.70;;;19.98;;
49464;SDS011;35358;49.342;8.802;2022-12-18T11:46:05;43.60;;;19.75;;
49464;SDS011;35358;49.342;8.802;2022-12-18T11:48:41;43.40;;;19.38;;
49464;SDS011;35358;49.342;8.802;2022-12-18T11:51:23;42.58;;;20.08;;
49464;SDS011;35358;49.342;8.802;2022-12-18T11:54:07;42.85;;;20.88;;
49464;SDS011;35358;49.342;8.802;2022-12-18T11:56:42;45.65;;;21.05;;
49464;SDS011;35358;49.342;8.802;2022-12-18T11:59:29;40.15;;;19.13;;
49464;SDS011;35358;49.342;8.802;2022-12-18T12:18:43;45.28;;;21.27;;
49464;SDS011;35358;49.342;8.802;2022-12-18T12:27:08;44.70;;;19.83;;
49464;SDS011;35358;49.342;8.802;2022-12-18T12:35:25;41.95;;;20.48;;
49464;SDS011;35358;49.342;8.802;2022-12-18T12:38:02;46.90;;;21.40;;
49464;SDS011;35358;49.342;8.802;2022-12-18T12:40:31;44.10;;;20.65;;
49464;SDS011;35358;49.342;8.802;2022-12-18T12:43:11;40.60;;;20.15;;
49464;SDS011;35358;49.342;8.802;2022-12-18T12:48:37;47.38;;;20.25;;
49464;SDS011;35358;49.342;8.802;2022-12-18T12:51:19;47.67;;;21.47;;
49464;SDS011;35358;49.342;8.802;2022-12-18T12:53:48;40.78;;;20.15;;
49464;SDS011;35358;49.342;8.802;2022-12-18T12:56:17;42.67;;;21.15;;
49464;SDS011;35358;49.342;8.802;2022-12-18T13:03:58;46.88;;;21.83;;
49464;SDS011;35358;49.342;8.802;2022-12-18T13:09:15;39.38;;;18.95;;
49464;SDS011;35358;49.342;8.802;2022-12-18T13:14:39;41.75;;;18.45;;
49464;SDS011;35358;49.342;8.802;2022-12-18T13:22:31;37.17;;;17.52;;
49464;SDS011;35358;49.342;8.802;2022-12-18T13:35:40;36.25;;;18.38;;
49464;SDS011;35358;49.342;8.802;2022-12-18T13:40:57;39.85;;;18.60;;
49464;SDS011;35358;49.342;8.802;2022-12-18T13:43:27;41.22;;;19.88;;
49464;SDS011;35358;49.342;8.802;2022-12-18T13:45:59;44.20;;;19.48;;
49464;SDS011;35358;49.342;8.802;2022-12-18T13:48:48;41.35;;;19.48;;
49464;SDS011;35358;49.342;8.802;2022-12-18T13:51:20;40.00;;;19.40;;
49464;SDS011;35358;49.342;8.802;2022-12-18T13:53:58;40.83;;;19.33;;
49464;SDS011;35358;49.342;8.802;2022-12-18T13:56:27;43.92;;;20.50;;
49464;SDS011;35358;49.342;8.802;2022-12-18T13:59:05;41.42;;;19.77;;
49464;SDS011;35358;49.342;8.802;2022-12-18T14:01:35;46.53;;;20.27;;
49464;SDS011;35358;49.342;8.802;2022-12-18T14:04:10;41.00;;;19.13;;
49464;SDS011;35358;49.342;8.802;2022-12-18T14:06:46;39.75;;;19.48;;
49464;SDS011;35358;49.342;8.802;2022-12-18T14:09:14;46.08;;;20.67;;
49464;SDS011;35358;49.342;8.802;2022-12-18T14:11:46;50.13;;;20.85;;
49464;SDS011;35358;49.342;8.802;2022-12-18T14:14:17;54.42;;;23.02;;
49464;SDS011;35358;49.342;8.802;2022-12-18T14:16:48;48.30;;;19.90;;
49464;SDS011;35358;49.342;8.802;2022-12-18T14:19:15;40.28;;;19.90;;
49464;SDS011;35358;49.342;8.802;2022-12-18T14:24:19;41.05;;;18.50;;
49464;SDS011;35358;49.342;8.802;2022-12-18T14:26:49;42.92;;;20.67;;
49464;SDS011;35358;49.342;8.802;2022-12-18T14:34:50;39.83;;;18.38;;
49464;SDS011;35358;49.342;8.802;2022-12-18T14:37:27;41.67;;;18.80;;
49464;SDS011;35358;49.342;8.802;2022-12-18T14:45:10;40.35;;;18.55;;
49464;SDS011;35358;49.342;8.802;2022-12-18T14:47:57;40.25;;;18.60;;
49464;SDS011;35358;49.342;8.802;2022-12-18T14:50:23;42.17;;;19.30;;
49464;SDS011;35358;49.342;8.802;2022-12-18T14:52:52;39.25;;;17.38;;
49464;SDS011;35358;49.342;8.802;2022-12-18T14:55:18;41.20;;;19.30;;
49464;SDS011;35358;49.342;8.802;2022-12-18T14:57:45;46.05;;;19.80;;
49464;SDS011;35358;49.342;8.802;2022-12-18T15:00:17;46.28;;;20.17;;
49464;SDS011;35358;49.342;8.802;2022-12-18T15:02:46;45.80;;;19.98;;
49464;SDS011;35358;49.342;8.802;2022-12-18T15:07:53;41.92;;;19.27;;
49464;SDS011;35358;49.342;8.802;2022-12-18T15:10:26;41.92;;;18.90;;
49464;SDS011;35358;49.342;8.802;2022-12-18T15:20:33;38.38;;;18.92;;
49464;SDS011;35358;49.342;8.802;2022-12-18T15:23:15;38.58;;;18.00;;
49464;SDS011;35358;49.342;8.802;2022-12-18T15:31:17;42.42;;;19.33;;
49464;SDS011;35358;49.342;8.802;2022-12-18T15:36:22;52.10;;;20.50;;
49464;SDS011;35358;49.342;8.802;2022-12-18T15:38:56;42.20;;;19.50;;
49464;SDS011;35358;49.342;8.802;2022-12-18T15:41:24;48.97;;;21.83;;
49464;SDS011;35358;49.342;8.802;2022-12-18T15:43:51;45.67;;;20.25;;
49464;SDS011;35358;49.342;8.802;2022-12-18T15:46:22;41.78;;;19.73;;
49464;SDS011;35358;49.342;8.802;2022-12-18T15:48:54;42.85;;;18.77;;
49464;SDS011;35358;49.342;8.802;2022-12-18T15:51:54;38.20;;;18.30;;
49464;SDS011;35358;49.342;8.802;2022-12-18T15:54:18;39.17;;;17.73;;
49464;SDS011;35358;49.342;8.802;2022-12-18T15:57:04;45.05;;;19.40;;
49464;SDS011;35358;49.342;8.802;2022-12-18T15:59:48;44.05;;;18.98;;
49464;SDS011;35358;49.342;8.802;2022-12-18T16:02:18;39.50;;;17.58;;
49464;SDS011;35358;49.342;8.802;2022-12-18T16:04:47;43.13;;;18.25;;
49464;SDS011;35358;49.342;8.802;2022-12-18T16:07:16;45.20;;;20.08;;
49464;SDS011;35358;49.342;8.802;2022-12-18T16:09:48;43.70;;;19.27;;
49464;SDS011;35358;49.342;8.802;2022-12-18T16:12:17;43.47;;;18.80;;
49464;SDS011;35358;49.342;8.802;2022-12-18T16:14:47;47.17;;;18.90;;
49464;SDS011;35358;49.342;8.802;2022-12-18T16:17:13;44.80;;;20.05;;
49464;SDS011;35358;49.342;8.802;2022-12-18T16:19:47;40.45;;;19.10;;
49464;SDS011;35358;49.342;8.802;2022-12-18T16:22:18;43.78;;;18.30;;
49464;SDS011;35358;49.342;8.802;2022-12-18T16:24:46;40.30;;;18.90;;
49464;SDS011;35358;49.342;8.802;2022-12-18T16:27:11;47.15;;;20.65;;
49464;SDS011;35358;49.342;8.802;2022-12-18T16:29:39;39.33;;;18.13;;
49464;SDS011;35358;49.342;8.802;2022-12-18T16:32:05;36.28;;;18.30;;
49464;SDS011;35358;49.342;8.802;2022-12-18T16:34:33;44.13;;;19.58;;
49464;SDS011;35358;49.342;8.802;2022-12-18T16:37:05;42.35;;;19.73;;
49464;SDS011;35358;49.342;8.802;2022-12-18T16:39:35;45.40;;;20.48;;
49464;SDS011;35358;49.342;8.802;2022-12-18T16:42:12;48.33;;;21.85;;
49464;SDS011;35358;49.342;8.802;2022-12-18T16:44:41;37.72;;;18.75;;
49464;SDS011;35358;49.342;8.802;2022-12-18T16:47:07;45.22;;;19.02;;
49464;SDS011;35358;49.342;8.802;2022-12-18T16:49:33;44.13;;;20.23;;
49464;SDS011;35358;49.342;8.802;2022-12-18T16:52:02;45.42;;;19.30;;
49464;SDS011;35358;49.342;8.802;2022-12-18T16:54:29;41.35;;;19.10;;
49464;SDS011;35358;49.342;8.802;2022-12-18T16:56:55;39.20;;;18.75;;
49464;SDS011;35358;49.342;8.802;2022-12-18T16:59:24;40.38;;;17.70;;
49464;SDS011;35358;49.342;8.802;2022-12-18T17:01:53;41.15;;;18.40;;
49464;SDS011;35358;49.342;8.802;2022-12-18T17:04:21;42.85;;;19.10;;
49464;SDS011;35358;49.342;8.802;2022-12-18T17:06:47;41.65;;;18.70;;
49464;SDS011;35358;49.342;8.802;2022-12-18T17:09:16;39.05;;;19.08;;
49464;SDS011;35358;49.342;8.802;2022-12-18T17:11:43;41.25;;;19.30;;
49464;SDS011;35358;49.342;8.802;2022-12-18T17:14:13;36.13;;;17.25;;
49464;SDS011;35358;49.342;8.802;2022-12-18T17:16:40;38.42;;;17.77;;